createdAt,value
2022-09-02T00:01:17.347Z,101075.45
2022-09-02T00:06:19.969Z,101071.50
2022-09-02T00:11:27.498Z,101069.30
2022-09-02T00:16:33.540Z,101075.11
2022-09-02T00:21:36.622Z,101074.86
2022-09-02T00:26:39.401Z,101075.06
2022-09-02T00:31:43.904Z,101070.00
2022-09-02T00:36:46.917Z,101069.65
2022-09-02T00:41:50.014Z,101071.19
2022-09-02T00:46:53.066Z,101073.92
2022-09-02T00:52:02.593Z,101073.41
2022-09-02T00:57:12.258Z,101069.68
2022-09-02T01:02:16.030Z,101070.58
2022-09-02T01:07:18.869Z,101076.46
2022-09-02T01:12:22.807Z,101077.30
2022-09-02T01:17:26.841Z,101077.52
2022-09-02T01:22:32.271Z,101072.67
2022-09-02T01:27:35.331Z,101072.77
2022-09-02T01:32:38.379Z,101078.78
2022-09-02T01:37:42.021Z,101074.77
2022-09-02T01:43:01.922Z,101069.15
2022-09-02T01:48:06.272Z,101064.67
2022-09-02T01:53:09.552Z,101055.73
2022-09-02T01:58:12.173Z,101056.56
2022-09-02T02:03:15.112Z,101060.71
2022-09-02T02:08:18.200Z,101067.43
2022-09-02T02:13:20.974Z,101065.05
2022-09-02T02:18:23.801Z,101060.91
2022-09-02T02:23:26.617Z,101067.48
2022-09-02T02:28:30.410Z,101071.23
2022-09-02T02:33:36.311Z,101066.46
2022-09-02T02:38:40.623Z,101064.00
2022-09-02T02:43:43.642Z,101062.36
2022-09-02T02:48:46.539Z,101069.90
2022-09-02T02:53:49.263Z,101078.23
2022-09-02T02:58:52.277Z,101075.48
2022-09-02T03:03:55.171Z,101075.71
2022-09-02T03:08:59.807Z,101076.36
2022-09-02T03:14:02.899Z,101067.55
2022-09-02T03:19:06.514Z,101071.17
2022-09-02T03:24:11.112Z,101081.43
2022-09-02T03:29:13.978Z,101084.52
2022-09-02T03:34:16.716Z,101082.90
2022-09-02T03:39:20.587Z,101077.20
2022-09-02T03:44:23.331Z,101078.65
2022-09-02T03:49:27.931Z,101086.73
2022-09-02T03:54:30.915Z,101094.08
2022-09-02T03:59:33.731Z,101096.02
2022-09-02T04:04:36.519Z,101098.21
2022-09-02T04:09:42.410Z,101102.20
2022-09-02T04:14:49.768Z,101104.83
2022-09-02T04:19:55.190Z,101108.90
2022-09-02T04:24:57.854Z,101107.03
2022-09-02T04:30:00.668Z,101108.17
2022-09-02T04:35:04.727Z,101110.45
2022-09-02T04:40:08.635Z,101113.02
2022-09-02T04:45:11.845Z,101114.30
2022-09-02T04:50:14.987Z,101111.14
2022-09-02T04:55:17.778Z,101105.36
2022-09-02T05:00:20.524Z,101107.23
2022-09-02T05:05:23.459Z,101106.42
2022-09-02T05:10:26.208Z,101105.72
2022-09-02T05:15:29.070Z,101102.43
2022-09-02T05:20:32.318Z,101101.95
2022-09-02T05:25:37.131Z,101098.23
2022-09-02T05:30:42.012Z,101100.92
2022-09-02T05:35:45.981Z,101105.33
2022-09-02T05:40:51.296Z,101107.23
2022-09-02T05:45:54.422Z,101105.88
2022-09-02T05:50:57.638Z,101111.92
2022-09-02T05:56:05.790Z,101111.41
2022-09-02T06:01:15.616Z,101116.72
2022-09-02T06:06:20.093Z,101115.21
2022-09-02T06:11:23.000Z,101115.80
2022-09-02T06:16:26.458Z,101119.20
2022-09-02T06:21:29.698Z,101131.22
2022-09-02T06:26:33.054Z,101128.15
2022-09-02T06:31:36.023Z,101130.40
2022-09-02T06:36:59.708Z,101130.33
2022-09-02T06:42:17.437Z,101132.21
2022-09-02T06:47:24.618Z,101131.48
2022-09-02T06:58:41.995Z,101129.61
2022-09-02T07:04:45.352Z,101128.09
2022-09-02T07:23:42.950Z,101132.19
2022-09-02T07:38:09.128Z,101137.71
2022-09-02T07:43:19.768Z,101140.07
2022-09-02T07:48:26.541Z,101142.08
2022-09-02T07:53:37.503Z,101139.98
2022-09-02T07:58:55.241Z,101134.59
2022-09-02T08:04:13.578Z,101129.14
2022-09-02T08:09:22.386Z,101127.09
2022-09-02T08:14:36.261Z,101131.05
2022-09-02T08:19:46.835Z,101131.08
2022-09-02T08:25:01.960Z,101129.16
2022-09-02T08:30:18.979Z,101126.66
2022-09-02T08:35:40.997Z,101125.60
2022-09-02T08:46:33.302Z,101124.20
2022-09-02T08:51:52.794Z,101120.38
2022-09-02T08:57:07.723Z,101120.74
2022-09-02T09:02:42.177Z,101127.70
2022-09-02T09:08:22.923Z,101121.02
2022-09-02T09:14:08.127Z,101112.68
2022-09-02T09:19:35.639Z,101109.63
2022-09-02T09:24:46.823Z,101107.81
2022-09-02T09:29:52.959Z,101109.11
2022-09-02T09:35:16.743Z,101108.98
2022-09-02T09:51:43.187Z,101113.05
2022-09-02T10:21:50.597Z,101113.48
2022-09-02T10:26:58.987Z,101107.48
2022-09-02T10:32:26.241Z,101107.46
2022-09-02T10:38:44.723Z,101103.80
2022-09-02T10:44:27.943Z,101098.77
2022-09-02T10:49:56.812Z,101101.59
2022-09-02T10:55:28.901Z,101099.95
2022-09-02T11:00:33.546Z,101095.66
2022-09-02T11:05:48.205Z,101099.50
2022-09-02T11:11:09.713Z,101102.73
2022-09-02T11:16:20.903Z,101100.11
2022-09-02T11:21:42.949Z,101098.59
2022-09-02T11:26:48.987Z,101098.11
2022-09-02T11:32:15.931Z,101095.12
2022-09-02T11:37:42.629Z,101095.40
2022-09-02T11:43:12.121Z,101095.03
2022-09-02T11:48:38.624Z,101086.25
2022-09-02T11:53:45.286Z,101081.98
2022-09-02T11:58:52.639Z,101082.63
2022-09-02T12:09:55.120Z,101067.06
2022-09-02T12:14:57.785Z,101062.81
2022-09-02T12:20:00.980Z,101064.41
2022-09-02T12:25:06.677Z,101060.02
2022-09-02T12:30:13.676Z,101057.77
2022-09-02T12:35:48.936Z,101058.05
2022-09-02T12:41:04.281Z,101051.63
2022-09-02T12:46:17.723Z,101047.84
2022-09-02T12:52:09.446Z,101048.98
2022-09-02T12:57:12.288Z,101050.52
2022-09-02T13:03:02.126Z,101047.62
2022-09-02T13:08:38.370Z,101045.61
2022-09-02T13:14:15.504Z,101038.96
2022-09-02T13:20:01.619Z,101040.55
2022-09-02T13:25:42.783Z,101038.97
2022-09-02T13:30:51.353Z,101035.39
2022-09-02T13:35:57.115Z,101033.95
2022-09-02T13:40:59.921Z,101032.40
2022-09-02T13:46:03.250Z,101030.34
2022-09-02T13:51:24.121Z,101025.52
2022-09-02T13:56:31.082Z,101018.24
2022-09-02T14:01:37.235Z,101012.34
2022-09-02T14:06:45.374Z,101013.08
2022-09-02T14:11:50.278Z,101012.77
2022-09-02T14:16:53.110Z,101008.86
2022-09-02T14:21:58.076Z,101003.94
2022-09-02T14:27:01.196Z,101002.84
2022-09-02T14:32:22.302Z,101000.39
2022-09-02T14:37:28.932Z,101005.04
2022-09-02T14:42:32.146Z,101009.14
2022-09-02T14:47:39.050Z,101009.69
2022-09-02T14:52:48.108Z,101009.42
2022-09-02T14:58:02.518Z,101009.38
2022-09-02T15:03:07.151Z,101003.58
2022-09-02T15:08:10.658Z,100998.50
2022-09-02T15:13:22.524Z,100993.44
2022-09-02T15:18:25.875Z,100994.87
2022-09-02T15:23:32.522Z,100996.77
2022-09-02T15:28:38.921Z,100991.50
2022-09-02T15:33:42.265Z,100995.36
2022-09-02T15:38:45.104Z,100994.78
2022-09-02T15:43:48.809Z,100993.25
2022-09-02T15:48:52.643Z,100993.86
2022-09-02T15:54:00.891Z,100994.30
2022-09-02T15:59:09.551Z,100996.59
2022-09-02T16:04:13.661Z,100991.98
2022-09-02T16:09:18.189Z,100987.38
2022-09-02T16:14:21.556Z,100984.48
2022-09-02T16:19:29.661Z,100988.02
2022-09-02T16:24:33.226Z,100987.05
2022-09-02T16:29:37.252Z,100989.97
2022-09-02T16:34:40.344Z,100988.48
2022-09-02T16:39:43.174Z,100983.44
2022-09-02T16:44:46.092Z,100983.36
2022-09-02T16:49:54.269Z,100983.48
2022-09-02T16:54:57.004Z,100989.17
2022-09-02T16:59:59.747Z,100995.89
2022-09-02T17:05:02.492Z,101001.36
2022-09-02T17:10:06.658Z,101004.66
2022-09-02T17:15:10.965Z,101004.20
2022-09-02T17:20:33.311Z,101000.84
2022-09-02T17:25:36.129Z,101004.11
2022-09-02T17:30:38.936Z,101007.33
2022-09-02T17:35:41.976Z,101008.36
2022-09-02T17:41:03.462Z,101006.16
2022-09-02T17:46:07.735Z,101012.60
2022-09-02T17:51:10.917Z,101017.44
2022-09-02T17:56:46.364Z,101023.18
2022-09-02T18:01:58.240Z,101025.57
2022-09-02T18:07:17.053Z,101025.80
2022-09-02T18:12:19.990Z,101031.27
2022-09-02T18:17:35.184Z,101036.44
2022-09-02T18:22:44.470Z,101044.45
2022-09-02T18:28:16.143Z,101049.61
2022-09-02T18:33:32.761Z,101054.58
2022-09-02T18:39:02.073Z,101062.70
2022-09-02T18:44:23.159Z,101067.73
2022-09-02T18:49:31.053Z,101066.90
2022-09-02T18:54:46.527Z,101071.59
2022-09-02T19:00:04.441Z,101075.55
2022-09-02T19:05:11.988Z,101075.91
2022-09-02T19:10:15.245Z,101074.23
2022-09-02T19:15:18.878Z,101072.17
2022-09-02T19:20:23.044Z,101070.67
2022-09-02T19:25:29.250Z,101075.70
2022-09-02T19:30:37.302Z,101074.48
2022-09-02T19:35:49.019Z,101078.14
2022-09-02T19:40:52.832Z,101076.10
2022-09-02T19:45:56.167Z,101072.98
2022-09-02T19:50:59.541Z,101072.04
2022-09-02T19:56:02.522Z,101076.02
2022-09-02T20:01:07.183Z,101078.19
2022-09-02T20:06:09.966Z,101075.59
2022-09-02T20:11:12.915Z,101076.50
2022-09-02T20:16:22.958Z,101074.45
2022-09-02T20:21:26.600Z,101081.48
2022-09-02T20:26:41.270Z,101082.00
2022-09-02T20:31:56.265Z,101086.27
2022-09-02T20:37:03.258Z,101087.77
2022-09-02T20:42:28.373Z,101087.14
2022-09-02T20:47:37.094Z,101085.36
2022-09-02T20:53:14.852Z,101092.58
2022-09-02T20:58:26.690Z,101093.25
2022-09-02T21:03:55.828Z,101096.63
2022-09-02T21:09:35.093Z,101096.45
2022-09-02T21:14:45.596Z,101094.42
2022-09-02T21:20:03.494Z,101095.77
2022-09-02T21:25:28.053Z,101101.14
2022-09-02T21:30:37.608Z,101105.36
2022-09-02T21:35:50.105Z,101103.61
2022-09-02T21:41:07.856Z,101105.14
2022-09-02T21:46:38.414Z,101101.52
2022-09-02T21:52:15.639Z,101105.73
2022-09-02T21:57:30.244Z,101108.77
2022-09-02T22:02:35.677Z,101109.20
2022-09-02T22:08:02.669Z,101111.67
2022-09-02T22:13:06.488Z,101110.97
2022-09-02T22:19:01.331Z,101108.45
2022-09-02T22:24:04.622Z,101112.77
2022-09-02T22:29:28.717Z,101111.21
2022-09-02T22:34:35.624Z,101110.36
2022-09-02T22:39:41.313Z,101114.19
2022-09-02T22:45:14.778Z,101116.02
2022-09-02T22:50:42.033Z,101119.25
2022-09-02T22:56:03.390Z,101116.08
2022-09-02T23:01:24.346Z,101115.05
2022-09-02T23:06:32.924Z,101119.84
2022-09-02T23:12:14.282Z,101123.52
2022-09-02T23:17:25.997Z,101118.92
2022-09-02T23:22:47.653Z,101122.14
2022-09-02T23:28:04.967Z,101122.39
2022-09-02T23:33:13.353Z,101124.98
2022-09-02T23:38:34.746Z,101124.52
2022-09-02T23:43:37.988Z,101126.55
2022-09-02T23:49:05.452Z,101128.61
2022-09-02T23:54:26.515Z,101134.14
2022-09-02T23:59:51.213Z,101136.14
